sensor_id;sensor_type;location;lat;lon;timestamp;P1;durP1;ratioP1;P2;durP2;ratioP2
41881;SDS011;27562;47.524;12.404;2024-02-14T00:00:17;5.32;;;2.28;;
41881;SDS011;27562;47.524;12.404;2024-02-14T00:02:45;4.32;;;2.05;;
41881;SDS011;27562;47.524;12.404;2024-02-14T00:05:14;3.92;;;2.00;;
41881;SDS011;27562;47.524;12.404;2024-02-14T00:07:40;3.97;;;2.10;;
41881;SDS011;27562;47.524;12.404;2024-02-14T00:10:06;6.68;;;2.33;;
41881;SDS011;27562;47.524;12.404;2024-02-14T00:12:33;5.95;;;2.50;;
41881;SDS011;27562;47.524;12.404;2024-02-14T00:15:00;5.15;;;2.10;;
41881;SDS011;27562;47.524;12.404;2024-02-14T00:17:26;3.28;;;2.00;;
41881;SDS011;27562;47.524;12.404;2024-02-14T00:19:51;4.38;;;2.25;;
41881;SDS011;27562;47.524;12.404;2024-02-14T00:22:17;4.35;;;2.33;;
41881;SDS011;27562;47.524;12.404;2024-02-14T00:24:43;3.97;;;2.17;;
41881;SDS011;27562;47.524;12.404;2024-02-14T00:27:09;4.35;;;2.05;;
41881;SDS011;27562;47.524;12.404;2024-02-14T00:29:34;4.30;;;1.98;;
41881;SDS011;27562;47.524;12.404;2024-02-14T00:32:00;4.20;;;2.00;;
41881;SDS011;27562;47.524;12.404;2024-02-14T00:34:26;6.85;;;2.08;;
41881;SDS011;27562;47.524;12.404;2024-02-14T00:36:52;4.45;;;2.60;;
41881;SDS011;27562;47.524;12.404;2024-02-14T00:39:18;3.05;;;2.03;;
41881;SDS011;27562;47.524;12.404;2024-02-14T00:41:45;5.38;;;3.08;;
41881;SDS011;27562;47.524;12.404;2024-02-14T00:44:12;7.53;;;2.97;;
41881;SDS011;27562;47.524;12.404;2024-02-14T00:46:41;5.50;;;2.75;;
41881;SDS011;27562;47.524;12.404;2024-02-14T00:49:08;7.28;;;2.50;;
41881;SDS011;27562;47.524;12.404;2024-02-14T00:51:35;5.30;;;2.40;;
41881;SDS011;27562;47.524;12.404;2024-02-14T00:54:02;6.72;;;3.33;;
41881;SDS011;27562;47.524;12.404;2024-02-14T00:56:28;6.60;;;3.63;;
41881;SDS011;27562;47.524;12.404;2024-02-14T00:58:54;4.93;;;2.90;;
41881;SDS011;27562;47.524;12.404;2024-02-14T01:01:20;5.47;;;2.50;;
41881;SDS011;27562;47.524;12.404;2024-02-14T01:03:46;5.20;;;2.20;;
41881;SDS011;27562;47.524;12.404;2024-02-14T01:06:12;6.25;;;1.83;;
41881;SDS011;27562;47.524;12.404;2024-02-14T01:08:39;7.85;;;2.13;;
41881;SDS011;27562;47.524;12.404;2024-02-14T01:11:06;5.35;;;2.50;;
41881;SDS011;27562;47.524;12.404;2024-02-14T01:13:32;6.38;;;2.65;;
41881;SDS011;27562;47.524;12.404;2024-02-14T01:15:58;5.97;;;2.83;;
41881;SDS011;27562;47.524;12.404;2024-02-14T01:18:24;4.90;;;2.47;;
41881;SDS011;27562;47.524;12.404;2024-02-14T01:20:49;4.88;;;2.42;;
41881;SDS011;27562;47.524;12.404;2024-02-14T01:23:15;6.35;;;2.30;;
41881;SDS011;27562;47.524;12.404;2024-02-14T01:25:41;4.40;;;2.00;;
41881;SDS011;27562;47.524;12.404;2024-02-14T01:28:09;3.95;;;1.90;;
41881;SDS011;27562;47.524;12.404;2024-02-14T01:30:35;3.67;;;1.83;;
41881;SDS011;27562;47.524;12.404;2024-02-14T01:33:01;4.32;;;2.30;;
41881;SDS011;27562;47.524;12.404;2024-02-14T01:35:28;3.55;;;2.15;;
41881;SDS011;27562;47.524;12.404;2024-02-14T01:37:55;4.22;;;1.90;;
41881;SDS011;27562;47.524;12.404;2024-02-14T01:40:20;4.25;;;1.70;;
41881;SDS011;27562;47.524;12.404;2024-02-14T01:42:46;5.00;;;2.20;;
41881;SDS011;27562;47.524;12.404;2024-02-14T01:45:12;3.85;;;2.25;;
41881;SDS011;27562;47.524;12.404;2024-02-14T01:47:38;4.15;;;1.80;;
41881;SDS011;27562;47.524;12.404;2024-02-14T01:50:07;3.50;;;1.75;;
41881;SDS011;27562;47.524;12.404;2024-02-14T01:52:36;3.25;;;1.73;;
41881;SDS011;27562;47.524;12.404;2024-02-14T01:55:03;4.55;;;1.95;;
41881;SDS011;27562;47.524;12.404;2024-02-14T01:57:33;4.20;;;1.88;;
41881;SDS011;27562;47.524;12.404;2024-02-14T02:00:01;4.32;;;2.10;;
41881;SDS011;27562;47.524;12.404;2024-02-14T02:02:36;3.35;;;1.80;;
41881;SDS011;27562;47.524;12.404;2024-02-14T02:05:02;3.20;;;2.03;;
41881;SDS011;27562;47.524;12.404;2024-02-14T02:07:28;4.75;;;1.80;;
41881;SDS011;27562;47.524;12.404;2024-02-14T02:09:58;4.80;;;1.92;;
41881;SDS011;27562;47.524;12.404;2024-02-14T02:12:24;4.65;;;2.25;;
41881;SDS011;27562;47.524;12.404;2024-02-14T02:14:52;2.85;;;1.67;;
41881;SDS011;27562;47.524;12.404;2024-02-14T02:17:18;4.85;;;1.95;;
41881;SDS011;27562;47.524;12.404;2024-02-14T02:19:44;3.90;;;1.80;;
41881;SDS011;27562;47.524;12.404;2024-02-14T02:22:09;2.70;;;1.52;;
41881;SDS011;27562;47.524;12.404;2024-02-14T02:24:35;6.13;;;2.22;;
41881;SDS011;27562;47.524;12.404;2024-02-14T02:27:01;3.50;;;1.95;;
41881;SDS011;27562;47.524;12.404;2024-02-14T02:29:28;3.70;;;2.17;;
41881;SDS011;27562;47.524;12.404;2024-02-14T02:31:54;5.00;;;2.15;;
41881;SDS011;27562;47.524;12.404;2024-02-14T02:34:19;3.70;;;2.10;;
41881;SDS011;27562;47.524;12.404;2024-02-14T02:36:45;5.65;;;2.33;;
41881;SDS011;27562;47.524;12.404;2024-02-14T02:39:14;4.80;;;2.10;;
41881;SDS011;27562;47.524;12.404;2024-02-14T02:41:39;4.90;;;2.42;;
41881;SDS011;27562;47.524;12.404;2024-02-14T02:44:05;3.08;;;1.90;;
41881;SDS011;27562;47.524;12.404;2024-02-14T02:46:31;3.40;;;1.55;;
41881;SDS011;27562;47.524;12.404;2024-02-14T02:48:57;5.30;;;2.33;;
41881;SDS011;27562;47.524;12.404;2024-02-14T02:51:23;3.70;;;2.15;;
41881;SDS011;27562;47.524;12.404;2024-02-14T02:53:49;3.60;;;1.90;;
41881;SDS011;27562;47.524;12.404;2024-02-14T02:56:17;3.60;;;1.92;;
41881;SDS011;27562;47.524;12.404;2024-02-14T02:58:43;5.57;;;2.30;;
41881;SDS011;27562;47.524;12.404;2024-02-14T03:01:10;4.20;;;1.88;;
41881;SDS011;27562;47.524;12.404;2024-02-14T03:03:37;4.47;;;1.90;;
41881;SDS011;27562;47.524;12.404;2024-02-14T03:06:05;3.03;;;1.60;;
41881;SDS011;27562;47.524;12.404;2024-02-14T03:08:31;4.22;;;1.77;;
41881;SDS011;27562;47.524;12.404;2024-02-14T03:11:02;3.08;;;1.98;;
41881;SDS011;27562;47.524;12.404;2024-02-14T03:13:31;3.45;;;2.20;;
41881;SDS011;27562;47.524;12.404;2024-02-14T03:15:56;5.93;;;2.22;;
41881;SDS011;27562;47.524;12.404;2024-02-14T03:18:23;5.43;;;1.83;;
41881;SDS011;27562;47.524;12.404;2024-02-14T03:20:49;3.95;;;1.83;;
41881;SDS011;27562;47.524;12.404;2024-02-14T03:23:15;5.57;;;2.60;;
41881;SDS011;27562;47.524;12.404;2024-02-14T03:25:41;5.40;;;2.40;;
41881;SDS011;27562;47.524;12.404;2024-02-14T03:28:07;3.88;;;2.22;;
41881;SDS011;27562;47.524;12.404;2024-02-14T03:30:37;6.60;;;2.83;;
41881;SDS011;27562;47.524;12.404;2024-02-14T03:33:04;4.70;;;2.53;;
41881;SDS011;27562;47.524;12.404;2024-02-14T03:35:30;4.65;;;2.42;;
41881;SDS011;27562;47.524;12.404;2024-02-14T03:37:56;6.50;;;3.08;;
41881;SDS011;27562;47.524;12.404;2024-02-14T03:40:21;4.95;;;2.75;;
41881;SDS011;27562;47.524;12.404;2024-02-14T03:42:47;6.45;;;3.25;;
41881;SDS011;27562;47.524;12.404;2024-02-14T03:45:13;4.75;;;2.90;;
41881;SDS011;27562;47.524;12.404;2024-02-14T03:47:39;5.88;;;3.08;;
41881;SDS011;27562;47.524;12.404;2024-02-14T03:50:06;4.65;;;2.70;;
41881;SDS011;27562;47.524;12.404;2024-02-14T03:52:33;3.97;;;1.92;;
41881;SDS011;27562;47.524;12.404;2024-02-14T03:55:02;5.00;;;2.33;;
41881;SDS011;27562;47.524;12.404;2024-02-14T03:57:28;3.70;;;1.92;;
41881;SDS011;27562;47.524;12.404;2024-02-14T03:59:54;4.82;;;2.55;;
41881;SDS011;27562;47.524;12.404;2024-02-14T04:02:21;5.35;;;2.55;;
41881;SDS011;27562;47.524;12.404;2024-02-14T04:04:48;4.15;;;2.13;;
41881;SDS011;27562;47.524;12.404;2024-02-14T04:07:14;4.13;;;2.17;;
41881;SDS011;27562;47.524;12.404;2024-02-14T04:09:40;5.38;;;2.17;;
41881;SDS011;27562;47.524;12.404;2024-02-14T04:12:06;3.80;;;2.00;;
41881;SDS011;27562;47.524;12.404;2024-02-14T04:14:32;5.93;;;2.08;;
41881;SDS011;27562;47.524;12.404;2024-02-14T04:16:57;3.78;;;2.03;;
41881;SDS011;27562;47.524;12.404;2024-02-14T04:19:23;4.32;;;1.92;;
41881;SDS011;27562;47.524;12.404;2024-02-14T04:21:49;6.88;;;2.53;;
41881;SDS011;27562;47.524;12.404;2024-02-14T04:24:15;4.03;;;2.00;;
41881;SDS011;27562;47.524;12.404;2024-02-14T04:26:41;4.25;;;2.20;;
41881;SDS011;27562;47.524;12.404;2024-02-14T04:29:07;4.93;;;2.42;;
41881;SDS011;27562;47.524;12.404;2024-02-14T04:31:33;5.25;;;2.35;;
41881;SDS011;27562;47.524;12.404;2024-02-14T04:34:00;6.55;;;2.67;;
41881;SDS011;27562;47.524;12.404;2024-02-14T04:36:25;5.78;;;2.20;;
41881;SDS011;27562;47.524;12.404;2024-02-14T04:38:51;5.05;;;2.22;;
41881;SDS011;27562;47.524;12.404;2024-02-14T04:41:17;5.15;;;2.13;;
41881;SDS011;27562;47.524;12.404;2024-02-14T04:43:43;3.22;;;2.03;;
41881;SDS011;27562;47.524;12.404;2024-02-14T04:46:12;4.25;;;1.92;;
41881;SDS011;27562;47.524;12.404;2024-02-14T04:48:38;7.43;;;2.40;;
41881;SDS011;27562;47.524;12.404;2024-02-14T04:51:04;5.35;;;2.70;;
41881;SDS011;27562;47.524;12.404;2024-02-14T04:53:30;4.63;;;2.55;;
41881;SDS011;27562;47.524;12.404;2024-02-14T04:55:56;4.68;;;2.58;;
41881;SDS011;27562;47.524;12.404;2024-02-14T04:58:22;4.95;;;2.05;;
41881;SDS011;27562;47.524;12.404;2024-02-14T05:00:48;4.35;;;2.38;;
41881;SDS011;27562;47.524;12.404;2024-02-14T05:03:14;5.70;;;1.88;;
41881;SDS011;27562;47.524;12.404;2024-02-14T05:05:40;3.60;;;1.83;;
41881;SDS011;27562;47.524;12.404;2024-02-14T05:08:06;3.70;;;1.65;;
41881;SDS011;27562;47.524;12.404;2024-02-14T05:10:32;4.38;;;1.58;;
41881;SDS011;27562;47.524;12.404;2024-02-14T05:12:58;2.97;;;1.58;;
41881;SDS011;27562;47.524;12.404;2024-02-14T05:15:24;3.72;;;1.67;;
41881;SDS011;27562;47.524;12.404;2024-02-14T05:17:49;4.30;;;1.60;;
41881;SDS011;27562;47.524;12.404;2024-02-14T05:20:16;4.40;;;2.05;;
41881;SDS011;27562;47.524;12.404;2024-02-14T05:22:42;5.45;;;2.75;;
41881;SDS011;27562;47.524;12.404;2024-02-14T05:25:08;4.90;;;2.22;;
41881;SDS011;27562;47.524;12.404;2024-02-14T05:27:34;4.00;;;2.17;;
41881;SDS011;27562;47.524;12.404;2024-02-14T05:30:01;4.35;;;2.10;;
41881;SDS011;27562;47.524;12.404;2024-02-14T05:32:28;8.38;;;3.90;;
41881;SDS011;27562;47.524;12.404;2024-02-14T05:34:54;5.60;;;3.40;;
41881;SDS011;27562;47.524;12.404;2024-02-14T05:37:20;7.80;;;4.45;;
41881;SDS011;27562;47.524;12.404;2024-02-14T05:39:45;7.70;;;4.00;;
41881;SDS011;27562;47.524;12.404;2024-02-14T05:42:11;5.30;;;3.00;;
41881;SDS011;27562;47.524;12.404;2024-02-14T05:44:37;3.88;;;2.10;;
41881;SDS011;27562;47.524;12.404;2024-02-14T05:47:02;4.55;;;2.10;;
41881;SDS011;27562;47.524;12.404;2024-02-14T05:49:28;3.70;;;1.83;;
41881;SDS011;27562;47.524;12.404;2024-02-14T05:51:54;5.22;;;2.00;;
41881;SDS011;27562;47.524;12.404;2024-02-14T05:54:19;4.80;;;2.10;;
41881;SDS011;27562;47.524;12.404;2024-02-14T05:56:48;3.03;;;1.90;;
41881;SDS011;27562;47.524;12.404;2024-02-14T05:59:14;4.32;;;1.90;;
41881;SDS011;27562;47.524;12.404;2024-02-14T06:01:39;4.22;;;2.28;;
41881;SDS011;27562;47.524;12.404;2024-02-14T06:04:05;6.50;;;2.15;;
41881;SDS011;27562;47.524;12.404;2024-02-14T06:06:31;5.22;;;2.35;;
41881;SDS011;27562;47.524;12.404;2024-02-14T06:08:56;4.22;;;2.35;;
41881;SDS011;27562;47.524;12.404;2024-02-14T06:11:22;4.63;;;2.25;;
41881;SDS011;27562;47.524;12.404;2024-02-14T06:13:48;3.92;;;2.15;;
41881;SDS011;27562;47.524;12.404;2024-02-14T06:16:14;4.43;;;2.10;;
41881;SDS011;27562;47.524;12.404;2024-02-14T06:18:39;6.78;;;3.38;;
41881;SDS011;27562;47.524;12.404;2024-02-14T06:21:05;17.63;;;6.97;;
41881;SDS011;27562;47.524;12.404;2024-02-14T06:23:31;15.48;;;7.07;;
41881;SDS011;27562;47.524;12.404;2024-02-14T06:25:57;14.23;;;7.00;;
41881;SDS011;27562;47.524;12.404;2024-02-14T06:28:23;16.92;;;8.52;;
41881;SDS011;27562;47.524;12.404;2024-02-14T06:30:49;38.42;;;18.67;;
41881;SDS011;27562;47.524;12.404;2024-02-14T06:33:15;19.67;;;9.98;;
41881;SDS011;27562;47.524;12.404;2024-02-14T06:35:41;19.95;;;9.88;;
41881;SDS011;27562;47.524;12.404;2024-02-14T06:38:06;17.10;;;8.25;;
41881;SDS011;27562;47.524;12.404;2024-02-14T06:40:32;5.38;;;3.25;;
41881;SDS011;27562;47.524;12.404;2024-02-14T06:42:58;7.10;;;3.28;;
41881;SDS011;27562;47.524;12.404;2024-02-14T06:45:27;7.00;;;3.22;;
41881;SDS011;27562;47.524;12.404;2024-02-14T06:47:53;6.35;;;3.45;;
41881;SDS011;27562;47.524;12.404;2024-02-14T06:50:19;7.55;;;3.25;;
41881;SDS011;27562;47.524;12.404;2024-02-14T06:52:45;6.32;;;3.15;;
41881;SDS011;27562;47.524;12.404;2024-02-14T06:55:11;6.95;;;3.40;;
41881;SDS011;27562;47.524;12.404;2024-02-14T06:57:36;5.38;;;3.08;;
41881;SDS011;27562;47.524;12.404;2024-02-14T07:00:04;9.98;;;3.53;;
41881;SDS011;27562;47.524;12.404;2024-02-14T07:02:31;7.20;;;3.78;;
41881;SDS011;27562;47.524;12.404;2024-02-14T07:04:57;7.40;;;4.07;;
41881;SDS011;27562;47.524;12.404;2024-02-14T07:07:22;11.05;;;5.03;;
41881;SDS011;27562;47.524;12.404;2024-02-14T07:09:48;9.00;;;4.68;;
41881;SDS011;27562;47.524;12.404;2024-02-14T07:12:14;7.05;;;4.03;;
41881;SDS011;27562;47.524;12.404;2024-02-14T07:14:39;8.57;;;4.38;;
41881;SDS011;27562;47.524;12.404;2024-02-14T07:17:06;8.07;;;4.32;;
41881;SDS011;27562;47.524;12.404;2024-02-14T07:19:32;11.35;;;4.28;;
41881;SDS011;27562;47.524;12.404;2024-02-14T07:21:57;9.25;;;3.90;;
41881;SDS011;27562;47.524;12.404;2024-02-14T07:24:23;8.85;;;4.03;;
41881;SDS011;27562;47.524;12.404;2024-02-14T07:26:49;8.38;;;3.67;;
41881;SDS011;27562;47.524;12.404;2024-02-14T07:29:14;8.75;;;3.70;;
41881;SDS011;27562;47.524;12.404;2024-02-14T07:31:40;9.82;;;4.38;;
41881;SDS011;27562;47.524;12.404;2024-02-14T07:34:06;7.30;;;3.55;;
41881;SDS011;27562;47.524;12.404;2024-02-14T07:36:32;7.45;;;3.67;;
41881;SDS011;27562;47.524;12.404;2024-02-14T07:38:58;6.38;;;3.38;;
41881;SDS011;27562;47.524;12.404;2024-02-14T07:41:23;10.07;;;5.03;;
41881;SDS011;27562;47.524;12.404;2024-02-14T07:43:49;8.55;;;4.88;;
41881;SDS011;27562;47.524;12.404;2024-02-14T07:46:18;8.68;;;4.57;;
41881;SDS011;27562;47.524;12.404;2024-02-14T07:48:45;16.08;;;8.45;;
41881;SDS011;27562;47.524;12.404;2024-02-14T07:51:11;15.57;;;7.95;;
41881;SDS011;27562;47.524;12.404;2024-02-14T07:53:37;15.82;;;7.43;;
41881;SDS011;27562;47.524;12.404;2024-02-14T07:56:03;14.20;;;6.93;;
41881;SDS011;27562;47.524;12.404;2024-02-14T07:58:29;16.27;;;6.43;;
41881;SDS011;27562;47.524;12.404;2024-02-14T08:00:54;11.05;;;5.22;;
41881;SDS011;27562;47.524;12.404;2024-02-14T08:03:20;8.88;;;4.53;;
41881;SDS011;27562;47.524;12.404;2024-02-14T08:05:46;8.35;;;4.30;;
41881;SDS011;27562;47.524;12.404;2024-02-14T08:08:11;7.78;;;4.45;;
41881;SDS011;27562;47.524;12.404;2024-02-14T08:10:37;9.38;;;3.90;;
41881;SDS011;27562;47.524;12.404;2024-02-14T08:13:03;7.68;;;4.38;;
41881;SDS011;27562;47.524;12.404;2024-02-14T08:15:29;6.45;;;4.30;;
41881;SDS011;27562;47.524;12.404;2024-02-14T08:17:55;7.68;;;4.22;;
41881;SDS011;27562;47.524;12.404;2024-02-14T08:20:21;7.47;;;3.97;;
41881;SDS011;27562;47.524;12.404;2024-02-14T08:22:48;10.75;;;4.25;;
41881;SDS011;27562;47.524;12.404;2024-02-14T08:25:14;8.65;;;4.95;;
41881;SDS011;27562;47.524;12.404;2024-02-14T08:27:40;10.20;;;6.40;;
41881;SDS011;27562;47.524;12.404;2024-02-14T08:30:06;12.68;;;5.90;;
41881;SDS011;27562;47.524;12.404;2024-02-14T08:32:34;8.23;;;4.63;;
41881;SDS011;27562;47.524;12.404;2024-02-14T08:34:59;11.32;;;5.10;;
41881;SDS011;27562;47.524;12.404;2024-02-14T08:37:26;9.95;;;4.57;;
41881;SDS011;27562;47.524;12.404;2024-02-14T08:39:52;6.65;;;4.03;;
41881;SDS011;27562;47.524;12.404;2024-02-14T08:42:18;6.75;;;3.65;;
41881;SDS011;27562;47.524;12.404;2024-02-14T08:44:43;6.40;;;3.30;;
41881;SDS011;27562;47.524;12.404;2024-02-14T08:47:09;6.63;;;3.65;;
41881;SDS011;27562;47.524;12.404;2024-02-14T08:49:36;6.38;;;3.13;;
41881;SDS011;27562;47.524;12.404;2024-02-14T08:52:05;7.95;;;3.28;;
41881;SDS011;27562;47.524;12.404;2024-02-14T08:54:31;6.57;;;2.80;;
41881;SDS011;27562;47.524;12.404;2024-02-14T08:56:57;6.18;;;3.50;;
41881;SDS011;27562;47.524;12.404;2024-02-14T08:59:24;7.07;;;3.50;;
41881;SDS011;27562;47.524;12.404;2024-02-14T09:01:50;10.25;;;3.40;;
41881;SDS011;27562;47.524;12.404;2024-02-14T09:04:15;6.03;;;3.58;;
41881;SDS011;27562;47.524;12.404;2024-02-14T09:06:41;11.15;;;5.03;;
41881;SDS011;27562;47.524;12.404;2024-02-14T09:09:07;8.98;;;4.88;;
41881;SDS011;27562;47.524;12.404;2024-02-14T09:11:35;10.13;;;4.05;;
41881;SDS011;27562;47.524;12.404;2024-02-14T09:14:01;8.13;;;4.03;;
41881;SDS011;27562;47.524;12.404;2024-02-14T09:16:29;7.55;;;3.45;;
41881;SDS011;27562;47.524;12.404;2024-02-14T09:18:56;12.02;;;3.63;;
41881;SDS011;27562;47.524;12.404;2024-02-14T09:21:21;8.32;;;3.53;;
41881;SDS011;27562;47.524;12.404;2024-02-14T09:23:47;7.63;;;3.58;;
41881;SDS011;27562;47.524;12.404;2024-02-14T09:26:13;6.88;;;2.90;;
41881;SDS011;27562;47.524;12.404;2024-02-14T09:28:42;5.35;;;3.13;;
41881;SDS011;27562;47.524;12.404;2024-02-14T09:31:08;5.00;;;2.67;;
41881;SDS011;27562;47.524;12.404;2024-02-14T09:33:36;5.80;;;2.42;;
41881;SDS011;27562;47.524;12.404;2024-02-14T09:36:02;4.25;;;2.63;;
41881;SDS011;27562;47.524;12.404;2024-02-14T09:38:29;5.32;;;2.38;;
41881;SDS011;27562;47.524;12.404;2024-02-14T09:40:58;4.45;;;2.15;;
41881;SDS011;27562;47.524;12.404;2024-02-14T09:43:40;5.38;;;2.45;;
41881;SDS011;27562;47.524;12.404;2024-02-14T09:46:09;5.18;;;2.47;;
41881;SDS011;27562;47.524;12.404;2024-02-14T09:48:38;5.60;;;2.50;;
41881;SDS011;27562;47.524;12.404;2024-02-14T09:51:14;5.80;;;2.30;;
41881;SDS011;27562;47.524;12.404;2024-02-14T09:53:40;4.28;;;2.28;;
41881;SDS011;27562;47.524;12.404;2024-02-14T09:56:07;3.90;;;2.20;;
41881;SDS011;27562;47.524;12.404;2024-02-14T09:58:35;5.20;;;2.90;;
41881;SDS011;27562;47.524;12.404;2024-02-14T10:01:01;4.78;;;2.60;;
41881;SDS011;27562;47.524;12.404;2024-02-14T10:03:27;7.82;;;2.78;;
41881;SDS011;27562;47.524;12.404;2024-02-14T10:05:53;4.10;;;2.53;;
41881;SDS011;27562;47.524;12.404;2024-02-14T10:08:19;4.05;;;2.50;;
41881;SDS011;27562;47.524;12.404;2024-02-14T10:10:48;8.70;;;2.70;;
41881;SDS011;27562;47.524;12.404;2024-02-14T10:13:15;5.60;;;2.30;;
41881;SDS011;27562;47.524;12.404;2024-02-14T10:15:41;4.80;;;2.47;;
41881;SDS011;27562;47.524;12.404;2024-02-14T10:18:07;6.18;;;2.40;;
41881;SDS011;27562;47.524;12.404;2024-02-14T10:20:34;7.22;;;3.22;;
41881;SDS011;27562;47.524;12.404;2024-02-14T10:23:05;6.63;;;2.80;;
41881;SDS011;27562;47.524;12.404;2024-02-14T10:25:36;4.30;;;2.00;;
41881;SDS011;27562;47.524;12.404;2024-02-14T10:28:06;4.30;;;2.47;;
41881;SDS011;27562;47.524;12.404;2024-02-14T10:30:33;6.07;;;2.50;;
41881;SDS011;27562;47.524;12.404;2024-02-14T10:33:03;6.03;;;2.70;;
41881;SDS011;27562;47.524;12.404;2024-02-14T10:35:29;5.97;;;2.30;;
41881;SDS011;27562;47.524;12.404;2024-02-14T10:37:58;4.63;;;2.40;;
41881;SDS011;27562;47.524;12.404;2024-02-14T10:40:27;7.47;;;4.38;;
41881;SDS011;27562;47.524;12.404;2024-02-14T10:42:54;9.35;;;4.57;;
41881;SDS011;27562;47.524;12.404;2024-02-14T10:45:22;8.40;;;4.88;;
41881;SDS011;27562;47.524;12.404;2024-02-14T10:47:48;8.50;;;3.95;;
41881;SDS011;27562;47.524;12.404;2024-02-14T10:50:16;7.40;;;4.13;;
41881;SDS011;27562;47.524;12.404;2024-02-14T10:52:42;8.40;;;4.38;;
41881;SDS011;27562;47.524;12.404;2024-02-14T10:55:11;8.95;;;4.28;;
41881;SDS011;27562;47.524;12.404;2024-02-14T10:57:37;6.25;;;3.75;;
41881;SDS011;27562;47.524;12.404;2024-02-14T11:00:06;6.05;;;3.40;;
41881;SDS011;27562;47.524;12.404;2024-02-14T11:02:35;5.18;;;3.10;;
41881;SDS011;27562;47.524;12.404;2024-02-14T11:05:02;5.88;;;3.08;;
41881;SDS011;27562;47.524;12.404;2024-02-14T11:07:29;9.60;;;3.30;;
41881;SDS011;27562;47.524;12.404;2024-02-14T11:10:08;6.43;;;3.33;;
41881;SDS011;27562;47.524;12.404;2024-02-14T11:12:35;9.35;;;4.47;;
41881;SDS011;27562;47.524;12.404;2024-02-14T11:15:08;8.77;;;4.20;;
41881;SDS011;27562;47.524;12.404;2024-02-14T11:17:45;7.47;;;4.18;;
41881;SDS011;27562;47.524;12.404;2024-02-14T11:22:58;7.50;;;4.60;;
41881;SDS011;27562;47.524;12.404;2024-02-14T11:25:36;9.48;;;4.57;;
41881;SDS011;27562;47.524;12.404;2024-02-14T11:31:01;9.25;;;4.03;;
41881;SDS011;27562;47.524;12.404;2024-02-14T11:33:28;6.78;;;4.30;;
41881;SDS011;27562;47.524;12.404;2024-02-14T11:35:55;6.80;;;3.78;;
41881;SDS011;27562;47.524;12.404;2024-02-14T11:38:22;6.18;;;3.75;;
41881;SDS011;27562;47.524;12.404;2024-02-14T11:40:50;5.75;;;3.05;;
41881;SDS011;27562;47.524;12.404;2024-02-14T11:43:19;6.22;;;3.17;;
41881;SDS011;27562;47.524;12.404;2024-02-14T11:45:45;6.30;;;2.88;;
41881;SDS011;27562;47.524;12.404;2024-02-14T11:48:15;6.00;;;2.88;;
41881;SDS011;27562;47.524;12.404;2024-02-14T11:50:48;5.28;;;2.40;;
41881;SDS011;27562;47.524;12.404;2024-02-14T11:53:16;4.32;;;2.20;;
41881;SDS011;27562;47.524;12.404;2024-02-14T11:55:44;4.35;;;2.38;;
41881;SDS011;27562;47.524;12.404;2024-02-14T11:58:12;4.45;;;2.58;;
41881;SDS011;27562;47.524;12.404;2024-02-14T12:00:42;7.68;;;3.22;;
41881;SDS011;27562;47.524;12.404;2024-02-14T12:03:12;7.00;;;3.88;;
41881;SDS011;27562;47.524;12.404;2024-02-14T12:05:41;6.93;;;4.13;;
41881;SDS011;27562;47.524;12.404;2024-02-14T12:08:10;7.82;;;3.95;;
41881;SDS011;27562;47.524;12.404;2024-02-14T12:10:37;7.28;;;3.60;;
41881;SDS011;27562;47.524;12.404;2024-02-14T12:13:09;7.47;;;3.70;;
41881;SDS011;27562;47.524;12.404;2024-02-14T12:15:38;5.32;;;2.50;;
41881;SDS011;27562;47.524;12.404;2024-02-14T12:18:11;9.65;;;2.55;;
41881;SDS011;27562;47.524;12.404;2024-02-14T12:20:38;6.50;;;2.90;;
41881;SDS011;27562;47.524;12.404;2024-02-14T12:23:04;4.53;;;2.45;;
41881;SDS011;27562;47.524;12.404;2024-02-14T12:25:31;5.38;;;2.72;;
41881;SDS011;27562;47.524;12.404;2024-02-14T12:27:57;5.38;;;2.10;;
41881;SDS011;27562;47.524;12.404;2024-02-14T12:30:28;5.38;;;2.15;;
41881;SDS011;27562;47.524;12.404;2024-02-14T12:33:12;5.05;;;1.77;;
41881;SDS011;27562;47.524;12.404;2024-02-14T12:35:44;4.13;;;1.90;;
41881;SDS011;27562;47.524;12.404;2024-02-14T12:38:11;4.78;;;1.85;;
41881;SDS011;27562;47.524;12.404;2024-02-14T12:40:39;4.05;;;1.60;;
41881;SDS011;27562;47.524;12.404;2024-02-14T12:43:12;6.03;;;2.10;;
41881;SDS011;27562;47.524;12.404;2024-02-14T12:45:39;4.77;;;2.30;;
41881;SDS011;27562;47.524;12.404;2024-02-14T12:48:06;5.80;;;2.60;;
41881;SDS011;27562;47.524;12.404;2024-02-14T12:50:36;14.02;;;3.63;;
41881;SDS011;27562;47.524;12.404;2024-02-14T12:53:09;6.28;;;3.50;;
41881;SDS011;27562;47.524;12.404;2024-02-14T12:55:35;7.93;;;3.88;;
41881;SDS011;27562;47.524;12.404;2024-02-14T12:58:01;14.68;;;3.40;;
41881;SDS011;27562;47.524;12.404;2024-02-14T13:00:27;7.82;;;3.53;;
41881;SDS011;27562;47.524;12.404;2024-02-14T13:02:54;7.82;;;3.75;;
41881;SDS011;27562;47.524;12.404;2024-02-14T13:05:20;7.65;;;3.28;;
41881;SDS011;27562;47.524;12.404;2024-02-14T13:07:45;5.95;;;2.95;;
41881;SDS011;27562;47.524;12.404;2024-02-14T13:10:12;6.72;;;3.08;;
41881;SDS011;27562;47.524;12.404;2024-02-14T13:12:37;5.55;;;2.55;;
41881;SDS011;27562;47.524;12.404;2024-02-14T13:15:04;9.48;;;2.90;;
41881;SDS011;27562;47.524;12.404;2024-02-14T13:17:30;6.95;;;2.97;;
41881;SDS011;27562;47.524;12.404;2024-02-14T13:19:56;6.97;;;3.15;;
41881;SDS011;27562;47.524;12.404;2024-02-14T13:22:22;7.57;;;3.50;;
41881;SDS011;27562;47.524;12.404;2024-02-14T13:24:48;9.77;;;5.20;;
41881;SDS011;27562;47.524;12.404;2024-02-14T13:27:14;12.13;;;5.97;;
41881;SDS011;27562;47.524;12.404;2024-02-14T13:29:40;12.45;;;5.32;;
41881;SDS011;27562;47.524;12.404;2024-02-14T13:32:06;10.30;;;5.47;;
41881;SDS011;27562;47.524;12.404;2024-02-14T13:34:32;10.20;;;6.18;;
41881;SDS011;27562;47.524;12.404;2024-02-14T13:36:59;14.55;;;7.03;;
41881;SDS011;27562;47.524;12.404;2024-02-14T13:39:25;10.00;;;5.97;;
41881;SDS011;27562;47.524;12.404;2024-02-14T13:41:50;10.98;;;6.95;;
41881;SDS011;27562;47.524;12.404;2024-02-14T13:44:17;10.07;;;6.45;;
41881;SDS011;27562;47.524;12.404;2024-02-14T13:46:43;9.02;;;5.63;;
41881;SDS011;27562;47.524;12.404;2024-02-14T13:49:15;13.27;;;5.72;;
41881;SDS011;27562;47.524;12.404;2024-02-14T13:54:16;10.00;;;4.90;;
41881;SDS011;27562;47.524;12.404;2024-02-14T13:56:46;9.25;;;4.82;;
41881;SDS011;27562;47.524;12.404;2024-02-14T13:59:13;7.35;;;4.75;;
41881;SDS011;27562;47.524;12.404;2024-02-14T14:01:39;8.05;;;4.38;;
41881;SDS011;27562;47.524;12.404;2024-02-14T14:04:05;6.80;;;4.18;;
41881;SDS011;27562;47.524;12.404;2024-02-14T14:06:31;8.18;;;3.78;;
41881;SDS011;27562;47.524;12.404;2024-02-14T14:08:57;10.23;;;3.78;;
41881;SDS011;27562;47.524;12.404;2024-02-14T14:11:24;7.32;;;3.53;;
41881;SDS011;27562;47.524;12.404;2024-02-14T14:13:49;6.65;;;3.80;;
41881;SDS011;27562;47.524;12.404;2024-02-14T14:16:15;6.60;;;3.78;;
41881;SDS011;27562;47.524;12.404;2024-02-14T14:18:42;8.40;;;4.28;;
41881;SDS011;27562;47.524;12.404;2024-02-14T14:21:08;7.00;;;3.90;;
41881;SDS011;27562;47.524;12.404;2024-02-14T14:23:34;9.93;;;3.90;;
41881;SDS011;27562;47.524;12.404;2024-02-14T14:25:59;8.20;;;4.85;;
41881;SDS011;27562;47.524;12.404;2024-02-14T14:28:26;29.17;;;13.48;;
41881;SDS011;27562;47.524;12.404;2024-02-14T14:30:53;19.05;;;9.85;;
41881;SDS011;27562;47.524;12.404;2024-02-14T14:33:20;12.40;;;6.32;;
41881;SDS011;27562;47.524;12.404;2024-02-14T14:35:46;8.55;;;5.32;;
41881;SDS011;27562;47.524;12.404;2024-02-14T14:38:14;8.52;;;4.40;;